Cape Lambert — V7TC9 — position and weather

sailwx.info

Track history (hours):
 
Tides and Currents Weather Stations Pressure Air Temp Water Temp Dewpoint Dewpoint Depression Visibility Wind Speed Wind Dir Waves Ship Positions

Cape Lambert

Last reported at 2015-Jun-29 17:26 UTC. Time now 2015-Jul-07 11:02 UTC.
Position N 29°59' E 123°55'.

Length 290 m; draft 8.1 m.

Type: Cargo ship. MMSI: 538003781.

Date/timePositionNaut miles runAvg speedWind from/ knotsBaromVisibWave heightAir tempDewpointWater temp
2015-Jun-29 17:26N 29°59' E 123°55'95 9.6
2015-Jun-29 07:33N 31°05' E 122°36'1110.9
2015-Jun-29 06:33N 31°06' E 122°23'1313.1
2015-Jun-29 05:33N 31°11' E 122°09'1414.4
2015-Jun-29 04:33N 31°16' E 121°53'1211.9
2015-Jun-29 03:34N 31°20' E 121°40'1110.5
2015-Jun-29 02:33N 31°26' E 121°30'7 6.8
2015-Jun-29 01:33N 31°30' E 121°24'1312.7
2015-Jun-29 00:30N 31°40' E 121°13'4 0.6
2015-Jun-28 17:07N 31°42' E 121°09'0 0.0
2015-Jun-28 13:22N 31°42' E 121°09'0 0.0
2015-Jun-27 05:25N 31°42' E 121°09'0 0.0
2015-Jun-27 04:28N 31°42' E 121°09'0 0.0
2015-Jun-27 03:31N 31°42' E 121°09'0 0.0
2015-Jun-27 02:28N 31°42' E 121°09'0 0.0
2015-Jun-27 01:31N 31°42' E 121°09'0 0.0
2015-Jun-27 00:31N 31°42' E 121°09'0 0.0
2015-Jun-26 23:31N 31°42' E 121°09'0 0.0
2015-Jun-26 22:28N 31°42' E 121°09'0 0.0
2015-Jun-26 21:25N 31°42' E 121°09'0 0.0
2015-Jun-26 20:31N 31°42' E 121°09'0 0.0
2015-Jun-26 19:31N 31°42' E 121°09'0 0.0
2015-Jun-26 18:28N 31°42' E 121°09'0 0.0
2015-Jun-26 17:28N 31°42' E 121°09'0 0.0
2015-Jun-26 16:31N 31°42' E 121°09'0 0.0
2015-Jun-26 15:19N 31°42' E 121°09'0 0.0
2015-Jun-26 14:25N 31°42' E 121°09'0 0.0
2015-Jun-26 13:25N 31°42' E 121°09'0 0.0
2015-Jun-26 12:31N 31°42' E 121°09'0 0.0
2015-Jun-26 11:28N 31°42' E 121°09'0 0.0
2015-Jun-26 10:31N 31°42' E 121°09'0 0.0
2015-Jun-26 09:28N 31°42' E 121°09'0 0.0
2015-Jun-26 08:22N 31°42' E 121°09'0 0.0
2015-Jun-26 07:31N 31°42' E 121°09'0 0.0
2015-Jun-26 06:31N 31°42' E 121°09'0 0.0
2015-Jun-26 05:13N 31°42' E 121°09'0 0.1
2015-Jun-26 04:33N 31°42' E 121°09'3 2.8
2015-Jun-26 03:33N 31°40' E 121°12'8 8.4
2015-Jun-26 02:32N 31°35' E 121°20'0 0.1
2015-Jun-26 01:29N 31°35' E 121°20'0 0.0
2015-Jun-26 00:32N 31°35' E 121°20'0 0.1
2015-Jun-25 23:32N 31°35' E 121°20'0 0.0
2015-Jun-25 22:32N 31°35' E 121°20'0 0.1
2015-Jun-25 21:32N 31°35' E 121°20'0 0.0
2015-Jun-25 20:29N 31°35' E 121°20'0 0.0
2015-Jun-25 19:32N 31°35' E 121°20'0 0.0
2015-Jun-25 18:29N 31°35' E 121°20'0 0.0
2015-Jun-25 17:29N 31°35' E 121°20'0 0.0
2015-Jun-25 16:32N 31°35' E 121°20'0 0.0
2015-Jun-25 15:32N 31°35' E 121°20'0 0.0
2015-Jun-25 14:32N 31°35' E 121°20'0 0.0
2015-Jun-25 13:32N 31°35' E 121°20'0 0.0
2015-Jun-25 12:32N 31°35' E 121°20'0 0.0
2015-Jun-25 11:27N 31°35' E 121°20'0 0.2
2015-Jun-25 10:32N 31°36' E 121°20'0 0.1
2015-Jun-25 09:32N 31°35' E 121°20'0 0.1
2015-Jun-25 08:32N 31°35' E 121°20'0 0.2
2015-Jun-25 07:33N 31°35' E 121°19'6 6.1
2015-Jun-25 06:34N 31°39' E 121°14'5 4.5
2015-Jun-25 05:25N 31°36' E 121°19'0 0.1
2015-Jun-25 04:31N 31°36' E 121°19'0 0.0
2015-Jun-25 03:34N 31°36' E 121°19'0 0.0
2015-Jun-25 02:34N 31°36' E 121°19'0 0.0
2015-Jun-25 01:33N 31°36' E 121°19'2 2.4
2015-Jun-25 00:33N 31°34' E 121°20'1111.3
2015-Jun-24 23:33N 31°26' E 121°29'9 8.8
2015-Jun-24 22:33N 31°22' E 121°38'9 8.8
2015-Jun-24 21:33N 31°18' E 121°48'10 9.6
2015-Jun-24 20:33N 31°15' E 121°58'9 9.0
2015-Jun-24 19:33N 31°12' E 122°08'10 9.6
2015-Jun-24 18:33N 31°07' E 122°18'4 4.3
2015-Jun-24 17:32N 31°07' E 122°23'3 3.3
2015-Jun-24 16:33N 31°07' E 122°26'10 6.6
2015-Jun-24 15:05N 31°06' E 122°38'6 0.4
2015-Jun-23 23:26N 31°08' E 122°45'0 0.1
2015-Jun-23 20:08N 31°08' E 122°44'  
2015-Jun-21 06:30N 29°45' E 122°33'1110.7
2015-Jun-21 05:26N 29°45' E 122°20'910.4
2015-Jun-21 04:33N 29°51' E 122°12'7 6.9
2015-Jun-21 03:33N 29°54' E 122°05'0 0.1
2015-Jun-21 02:15N 29°54' E 122°05'0 0.0
2015-Jun-21 01:27N 29°54' E 122°05'0 0.1
2015-Jun-21 00:33N 29°54' E 122°05'0 0.0
2015-Jun-20 23:33N 29°54' E 122°05'0 0.0
2015-Jun-20 22:27N 29°54' E 122°05'0 0.0
2015-Jun-20 21:09N 29°54' E 122°05'0 0.1
2015-Jun-20 20:15N 29°54' E 122°05'0 0.1
2015-Jun-20 19:27N 29°54' E 122°05'0 0.0
2015-Jun-20 17:27N 29°54' E 122°05'0 0.1
2015-Jun-20 16:33N 29°54' E 122°05'0 0.0
2015-Jun-20 15:27N 29°54' E 122°05'0 0.1
2015-Jun-20 14:27N 29°54' E 122°05'0 0.0
2015-Jun-20 13:27N 29°54' E 122°05'0 0.0
2015-Jun-20 12:21N 29°54' E 122°05'0 0.1
2015-Jun-20 11:21N 29°54' E 122°05'0 0.0
2015-Jun-20 10:15N 29°54' E 122°05'0 0.0
2015-Jun-20 09:21N 29°54' E 122°05'0 0.1
2015-Jun-20 08:33N 29°54' E 122°05'0 0.0
2015-Jun-20 07:09N 29°54' E 122°05'0 0.0
2015-Jun-20 06:33N 29°54' E 122°05'0 0.0
2015-Jun-20 05:27N 29°54' E 122°05'1 0.6
2015-Jun-20 04:33N 29°54' E 122°05'5 4.8
2015-Jun-20 03:33N 29°54' E 122°10'1110.9
2015-Jun-20 02:33N 29°46' E 122°18'9 8.7
2015-Jun-20 01:33N 29°41' E 122°26'4 4.0
2015-Jun-20 00:33N 29°38' E 122°30'0 0.1
2015-Jun-19 21:28N 29°38' E 122°30'  
Track history (hours):
 
Tides and Currents Weather Stations Pressure Air Temp Water Temp Dewpoint Dewpoint Depression Visibility Wind Speed Wind Dir Waves Ship Positions

Cape Lambert

Last reported at 2015-Jun-29 17:26 UTC. Time now 2015-Jul-07 11:02 UTC.
Position N 29°59' E 123°55'.

Length 290 m; draft 8.1 m.

Type: Cargo ship. MMSI: 538003781.

Date/timePositionNaut miles runAvg speedWind from/ knotsBaromVisibWave heightAir tempDewpointWater temp
2015-Jun-29 17:26N 29°59' E 123°55'95 9.6
2015-Jun-29 07:33N 31°05' E 122°36'1110.9
2015-Jun-29 06:33N 31°06' E 122°23'1313.1
2015-Jun-29 05:33N 31°11' E 122°09'1414.4
2015-Jun-29 04:33N 31°16' E 121°53'1211.9
2015-Jun-29 03:34N 31°20' E 121°40'1110.5
2015-Jun-29 02:33N 31°26' E 121°30'7 6.8
2015-Jun-29 01:33N 31°30' E 121°24'1312.7
2015-Jun-29 00:30N 31°40' E 121°13'4 0.6
2015-Jun-28 17:07N 31°42' E 121°09'0 0.0
2015-Jun-28 13:22N 31°42' E 121°09'0 0.0
2015-Jun-27 05:25N 31°42' E 121°09'0 0.0
2015-Jun-27 04:28N 31°42' E 121°09'0 0.0
2015-Jun-27 03:31N 31°42' E 121°09'0 0.0
2015-Jun-27 02:28N 31°42' E 121°09'0 0.0
2015-Jun-27 01:31N 31°42' E 121°09'0 0.0
2015-Jun-27 00:31N 31°42' E 121°09'0 0.0
2015-Jun-26 23:31N 31°42' E 121°09'0 0.0
2015-Jun-26 22:28N 31°42' E 121°09'0 0.0
2015-Jun-26 21:25N 31°42' E 121°09'0 0.0
2015-Jun-26 20:31N 31°42' E 121°09'0 0.0
2015-Jun-26 19:31N 31°42' E 121°09'0 0.0
2015-Jun-26 18:28N 31°42' E 121°09'0 0.0
2015-Jun-26 17:28N 31°42' E 121°09'0 0.0
2015-Jun-26 16:31N 31°42' E 121°09'0 0.0
2015-Jun-26 15:19N 31°42' E 121°09'0 0.0
2015-Jun-26 14:25N 31°42' E 121°09'0 0.0
2015-Jun-26 13:25N 31°42' E 121°09'0 0.0
2015-Jun-26 12:31N 31°42' E 121°09'0 0.0
2015-Jun-26 11:28N 31°42' E 121°09'0 0.0
2015-Jun-26 10:31N 31°42' E 121°09'0 0.0
2015-Jun-26 09:28N 31°42' E 121°09'0 0.0
2015-Jun-26 08:22N 31°42' E 121°09'0 0.0
2015-Jun-26 07:31N 31°42' E 121°09'0 0.0
2015-Jun-26 06:31N 31°42' E 121°09'0 0.0
2015-Jun-26 05:13N 31°42' E 121°09'0 0.1
2015-Jun-26 04:33N 31°42' E 121°09'3 2.8
2015-Jun-26 03:33N 31°40' E 121°12'8 8.4
2015-Jun-26 02:32N 31°35' E 121°20'0 0.1
2015-Jun-26 01:29N 31°35' E 121°20'0 0.0
2015-Jun-26 00:32N 31°35' E 121°20'0 0.1
2015-Jun-25 23:32N 31°35' E 121°20'0 0.0
2015-Jun-25 22:32N 31°35' E 121°20'0 0.1
2015-Jun-25 21:32N 31°35' E 121°20'0 0.0
2015-Jun-25 20:29N 31°35' E 121°20'0 0.0
2015-Jun-25 19:32N 31°35' E 121°20'0 0.0
2015-Jun-25 18:29N 31°35' E 121°20'0 0.0
2015-Jun-25 17:29N 31°35' E 121°20'0 0.0
2015-Jun-25 16:32N 31°35' E 121°20'0 0.0
2015-Jun-25 15:32N 31°35' E 121°20'0 0.0
2015-Jun-25 14:32N 31°35' E 121°20'0 0.0
2015-Jun-25 13:32N 31°35' E 121°20'0 0.0
2015-Jun-25 12:32N 31°35' E 121°20'0 0.0
2015-Jun-25 11:27N 31°35' E 121°20'0 0.2
2015-Jun-25 10:32N 31°36' E 121°20'0 0.1
2015-Jun-25 09:32N 31°35' E 121°20'0 0.1
2015-Jun-25 08:32N 31°35' E 121°20'0 0.2
2015-Jun-25 07:33N 31°35' E 121°19'6 6.1
2015-Jun-25 06:34N 31°39' E 121°14'5 4.5
2015-Jun-25 05:25N 31°36' E 121°19'0 0.1
2015-Jun-25 04:31N 31°36' E 121°19'0 0.0
2015-Jun-25 03:34N 31°36' E 121°19'0 0.0
2015-Jun-25 02:34N 31°36' E 121°19'0 0.0
2015-Jun-25 01:33N 31°36' E 121°19'2 2.4
2015-Jun-25 00:33N 31°34' E 121°20'1111.3
2015-Jun-24 23:33N 31°26' E 121°29'9 8.8
2015-Jun-24 22:33N 31°22' E 121°38'9 8.8
2015-Jun-24 21:33N 31°18' E 121°48'10 9.6
2015-Jun-24 20:33N 31°15' E 121°58'9 9.0
2015-Jun-24 19:33N 31°12' E 122°08'10 9.6
2015-Jun-24 18:33N 31°07' E 122°18'4 4.3
2015-Jun-24 17:32N 31°07' E 122°23'3 3.3
2015-Jun-24 16:33N 31°07' E 122°26'10 6.6
2015-Jun-24 15:05N 31°06' E 122°38'6 0.4
2015-Jun-23 23:26N 31°08' E 122°45'0 0.1
2015-Jun-23 20:08N 31°08' E 122°44'  
2015-Jun-21 06:30N 29°45' E 122°33'1110.7
2015-Jun-21 05:26N 29°45' E 122°20'910.4
2015-Jun-21 04:33N 29°51' E 122°12'7 6.9
2015-Jun-21 03:33N 29°54' E 122°05'0 0.1
2015-Jun-21 02:15N 29°54' E 122°05'0 0.0
2015-Jun-21 01:27N 29°54' E 122°05'0 0.1
2015-Jun-21 00:33N 29°54' E 122°05'0 0.0
2015-Jun-20 23:33N 29°54' E 122°05'0 0.0
2015-Jun-20 22:27N 29°54' E 122°05'0 0.0
2015-Jun-20 21:09N 29°54' E 122°05'0 0.1
2015-Jun-20 20:15N 29°54' E 122°05'0 0.1
2015-Jun-20 19:27N 29°54' E 122°05'0 0.0
2015-Jun-20 17:27N 29°54' E 122°05'0 0.1
2015-Jun-20 16:33N 29°54' E 122°05'0 0.0
2015-Jun-20 15:27N 29°54' E 122°05'0 0.1
2015-Jun-20 14:27N 29°54' E 122°05'0 0.0
2015-Jun-20 13:27N 29°54' E 122°05'0 0.0
2015-Jun-20 12:21N 29°54' E 122°05'0 0.1
2015-Jun-20 11:21N 29°54' E 122°05'0 0.0
2015-Jun-20 10:15N 29°54' E 122°05'0 0.0
2015-Jun-20 09:21N 29°54' E 122°05'0 0.1
2015-Jun-20 08:33N 29°54' E 122°05'0 0.0
2015-Jun-20 07:09N 29°54' E 122°05'0 0.0
2015-Jun-20 06:33N 29°54' E 122°05'0 0.0
2015-Jun-20 05:27N 29°54' E 122°05'1 0.6
2015-Jun-20 04:33N 29°54' E 122°05'5 4.8
2015-Jun-20 03:33N 29°54' E 122°10'1110.9
2015-Jun-20 02:33N 29°46' E 122°18'9 8.7
2015-Jun-20 01:33N 29°41' E 122°26'4 4.0
2015-Jun-20 00:33N 29°38' E 122°30'0 0.1
2015-Jun-19 21:28N 29°38' E 122°30'  

Dump ship's entire track history